Time;durP1;ratioP1;P1;durP2;ratioP2;P2;SDS_P1;SDS_P2;PMS_P1;PMS_P2;Temp;Humidity;BMP_temperature;BMP_pressure;BME280_temperature;BME280_humidity;BME280_pressure;Samples;Min_cycle;Max_cycle;Signal;HPM_P1;HPM_P2
2021/10/03 00:00:36;;;;;;;7.57;6.43;;;13.70;99.90;;;;;;5019434;28;20209;-78
2021/10/03 00:03:04;;;;;;;8.23;7.37;;;13.80;99.90;;;;;;5017387;28;20730;-78
2021/10/03 00:05:30;;;;;;;7.10;6.40;;;13.70;99.90;;;;;;5017977;28;20261;-78
2021/10/03 00:07:59;;;;;;;8.13;7.43;;;13.80;99.90;;;;;;5035415;28;20233;-78
2021/10/03 00:10:26;;;;;;;7.77;7.07;;;13.80;99.90;;;;;;5034272;28;20178;-78
2021/10/03 00:12:52;;;;;;;7.93;6.83;;;13.80;99.90;;;;;;5034355;28;20236;-80
2021/10/03 00:15:19;;;;;;;7.70;6.90;;;13.70;99.90;;;;;;5034462;28;20214;-77
2021/10/03 00:17:45;;;;;;;8.30;7.50;;;13.70;99.90;;;;;;5032641;28;20179;-78
2021/10/03 00:20:12;;;;;;;8.17;7.47;;;13.70;99.90;;;;;;5016276;28;20235;-78
2021/10/03 00:22:39;;;;;;;8.37;7.63;;;13.70;99.90;;;;;;5016343;28;20665;-78
2021/10/03 00:25:07;;;;;;;7.60;6.90;;;13.60;99.90;;;;;;5034831;28;20182;-78
2021/10/03 00:27:33;;;;;;;7.87;7.17;;;13.60;99.90;;;;;;5017116;28;20171;-78
2021/10/03 00:29:59;;;;;;;9.23;8.23;;;13.60;99.90;;;;;;5034610;28;20526;-78
2021/10/03 00:32:25;;;;;;;13.10;7.37;;;13.60;99.90;;;;;;5034373;28;20249;-78
2021/10/03 00:34:50;;;;;;;7.63;6.93;;;13.60;99.90;;;;;;5035199;28;20265;-78
2021/10/03 00:37:16;;;;;;;8.60;7.70;;;13.50;99.90;;;;;;5034905;28;20688;-78
2021/10/03 00:39:42;;;;;;;8.40;7.70;;;13.50;99.90;;;;;;5034563;28;20633;-78
2021/10/03 00:42:08;;;;;;;8.73;7.70;;;13.50;99.90;;;;;;5016455;28;20695;-77
2021/10/03 00:44:34;;;;;;;9.73;6.93;;;13.50;99.90;;;;;;5034429;28;20540;-78
2021/10/03 00:47:00;;;;;;;9.17;7.20;;;13.50;99.90;;;;;;5034389;28;20179;-78
2021/10/03 00:49:26;;;;;;;8.00;7.30;;;13.50;99.90;;;;;;5034272;28;20175;-78
2021/10/03 00:51:51;;;;;;;8.60;6.93;;;13.50;99.90;;;;;;5025414;28;20278;-78
2021/10/03 00:54:17;;;;;;;7.93;7.23;;;13.50;99.90;;;;;;5011900;28;20201;-80
2021/10/03 00:56:44;;;;;;;7.67;6.97;;;13.40;99.90;;;;;;5034543;28;20178;-78
2021/10/03 00:59:10;;;;;;;7.60;6.93;;;13.40;99.90;;;;;;5034135;28;20175;-78
2021/10/03 01:01:35;;;;;;;8.47;7.67;;;13.40;99.90;;;;;;5034118;28;20572;-78
2021/10/03 01:04:02;;;;;;;7.67;6.90;;;13.40;99.90;;;;;;5035565;28;20701;-80
2021/10/03 01:06:27;;;;;;;7.33;6.73;;;13.30;99.90;;;;;;5035475;28;20224;-80
2021/10/03 01:08:53;;;;;;;8.53;7.10;;;13.30;99.90;;;;;;5034333;28;20170;-80
2021/10/03 01:11:19;;;;;;;7.47;6.80;;;13.30;99.90;;;;;;5034188;28;20202;-78
2021/10/03 01:13:47;;;;;;;7.70;7.00;;;13.30;99.90;;;;;;5016435;28;20187;-80
2021/10/03 01:16:13;;;;;;;7.40;6.70;;;13.30;99.90;;;;;;5019437;28;20178;-80
2021/10/03 01:18:39;;;;;;;6.77;6.13;;;13.20;99.90;;;;;;5016684;28;20721;-78
2021/10/03 01:21:06;;;;;;;7.83;7.10;;;13.20;99.90;;;;;;5034067;28;20286;-77
2021/10/03 01:23:32;;;;;;;7.30;6.60;;;13.10;99.90;;;;;;5033912;28;20240;-78
2021/10/03 01:25:58;;;;;;;7.27;6.63;;;13.00;99.90;;;;;;5015964;28;20182;-78
2021/10/03 01:28:23;;;;;;;7.50;6.80;;;12.90;99.90;;;;;;5033459;28;20193;-78
2021/10/03 01:30:52;;;;;;;9.87;6.57;;;12.90;99.90;;;;;;5016020;28;20577;-78
2021/10/03 01:33:19;;;;;;;6.93;6.33;;;13.00;99.90;;;;;;5002054;28;20187;-78
2021/10/03 01:35:45;;;;;;;7.40;6.67;;;13.00;99.90;;;;;;5033466;28;20656;-78
2021/10/03 01:38:14;;;;;;;7.43;6.73;;;13.10;99.90;;;;;;5016911;28;20189;-77
2021/10/03 01:40:41;;;;;;;7.60;6.90;;;13.10;99.90;;;;;;5033586;28;20198;-78
2021/10/03 01:43:07;;;;;;;6.97;6.37;;;13.00;99.90;;;;;;5034582;28;20202;-78
2021/10/03 01:45:32;;;;;;;6.80;6.20;;;13.10;99.90;;;;;;5016554;28;20251;-78
2021/10/03 01:48:14;;;;;;;7.53;6.20;;;13.00;99.90;;;;;;5037619;28;20178;-80
2021/10/03 01:50:52;;;;;;;8.17;6.63;;;13.10;99.90;;;;;;5016149;28;20689;-80
2021/10/03 01:53:22;;;;;;;8.57;7.23;;;13.00;99.90;;;;;;5023356;28;20212;-80
2021/10/03 01:55:48;;;;;;;6.67;6.07;;;13.10;99.90;;;;;;5043061;28;20259;-80
2021/10/03 01:58:16;;;;;;;7.53;6.20;;;13.00;99.90;;;;;;5035947;28;20209;-80
2021/10/03 02:00:45;;;;;;;7.77;7.03;;;13.10;99.90;;;;;;5036178;28;20189;-80
2021/10/03 02:03:11;;;;;;;7.90;7.20;;;13.00;99.90;;;;;;5038338;28;20190;-80
2021/10/03 02:05:39;;;;;;;6.47;5.90;;;13.00;99.90;;;;;;5020701;28;20203;-80
2021/10/03 02:08:06;;;;;;;7.10;6.50;;;13.10;99.90;;;;;;5037049;28;20179;-80
2021/10/03 02:10:32;;;;;;;7.80;7.10;;;13.00;99.90;;;;;;5038116;28;20199;-80
2021/10/03 02:12:58;;;;;;;7.00;6.40;;;13.00;99.90;;;;;;5020537;28;20174;-80
2021/10/03 02:15:25;;;;;;;7.70;7.00;;;13.00;99.90;;;;;;5037030;28;20525;-80
2021/10/03 02:17:50;;;;;;;7.33;6.63;;;13.00;99.90;;;;;;5038494;28;20596;-80
2021/10/03 02:20:18;;;;;;;7.03;6.43;;;13.00;99.90;;;;;;5032038;28;20174;-80
2021/10/03 02:22:44;;;;;;;7.83;7.03;;;13.00;99.90;;;;;;5020363;28;20202;-80
2021/10/03 02:25:10;;;;;;;7.43;6.73;;;13.00;99.90;;;;;;5038217;28;20238;-80
2021/10/03 02:27:36;;;;;;;6.63;6.03;;;13.00;99.90;;;;;;5022300;28;20171;-79
2021/10/03 02:30:03;;;;;;;7.47;6.80;;;12.90;99.90;;;;;;5041992;28;20536;-79
2021/10/03 02:32:29;;;;;;;6.50;6.00;;;12.90;99.90;;;;;;5024424;28;20217;-79
2021/10/03 02:34:55;;;;;;;7.13;6.43;;;12.80;99.90;;;;;;5024324;28;20185;-79
2021/10/03 02:37:22;;;;;;;7.07;6.47;;;12.80;99.90;;;;;;5024471;28;20194;-79
2021/10/03 02:39:48;;;;;;;7.40;6.57;;;12.90;99.90;;;;;;5045619;28;20181;-79
2021/10/03 02:42:14;;;;;;;8.20;7.40;;;12.80;99.90;;;;;;5044659;28;20202;-79
2021/10/03 02:44:40;;;;;;;6.73;6.13;;;12.90;99.90;;;;;;5044587;28;20182;-80
2021/10/03 02:47:11;;;;;;;7.20;6.47;;;12.80;99.90;;;;;;5026110;28;20178;-79
2021/10/03 02:49:43;;;;;;;6.60;5.90;;;12.80;99.90;;;;;;5025274;28;20304;-79
2021/10/03 02:52:09;;;;;;;6.70;6.10;;;12.80;99.90;;;;;;5025595;28;20198;-79
2021/10/03 02:54:37;;;;;;;7.13;6.43;;;12.70;99.90;;;;;;5042728;28;20185;-79
2021/10/03 02:57:04;;;;;;;6.87;6.17;;;12.80;99.90;;;;;;5021896;28;20179;-79
2021/10/03 02:59:30;;;;;;;6.50;6.00;;;12.80;99.90;;;;;;5021211;28;20177;-80
2021/10/03 03:01:55;;;;;;;9.50;7.23;;;12.80;99.90;;;;;;5041798;28;20276;-79
2021/10/03 03:04:21;;;;;;;6.50;5.83;;;12.80;99.90;;;;;;5041854;28;20236;-79
2021/10/03 03:06:46;;;;;;;7.27;6.43;;;12.80;99.90;;;;;;5041751;28;20174;-79
2021/10/03 03:09:12;;;;;;;6.37;5.87;;;12.70;99.90;;;;;;5023952;28;20174;-79
2021/10/03 03:11:38;;;;;;;6.50;6.00;;;12.70;99.90;;;;;;5041446;28;20191;-79
2021/10/03 03:14:04;;;;;;;6.30;5.80;;;12.70;99.90;;;;;;5042480;28;20174;-79
2021/10/03 03:16:29;;;;;;;7.67;6.97;;;12.70;99.90;;;;;;5023684;28;20261;-79
2021/10/03 03:18:55;;;;;;;6.17;5.67;;;12.60;99.90;;;;;;5024014;28;20181;-79
2021/10/03 03:21:21;;;;;;;7.10;5.47;;;12.60;99.90;;;;;;5041447;28;20200;-79
2021/10/03 03:23:46;;;;;;;6.13;5.53;;;12.70;99.90;;;;;;5023927;28;20198;-79
2021/10/03 03:26:12;;;;;;;6.40;5.80;;;12.70;99.90;;;;;;5041595;28;20649;-79
2021/10/03 03:28:38;;;;;;;9.93;5.97;;;12.70;99.90;;;;;;5041185;28;20185;-79
2021/10/03 03:31:04;;;;;;;7.07;6.20;;;12.70;99.90;;;;;;5022551;28;20215;-79
2021/10/03 03:33:30;;;;;;;6.00;5.50;;;12.70;99.90;;;;;;5023844;28;20178;-79
2021/10/03 03:35:55;;;;;;;5.93;5.43;;;12.70;99.90;;;;;;5023351;28;20201;-79
2021/10/03 03:38:21;;;;;;;6.20;5.70;;;12.70;99.90;;;;;;5039253;28;20188;-79
2021/10/03 03:40:47;;;;;;;6.03;5.43;;;12.60;99.90;;;;;;5040655;28;20206;-79
2021/10/03 03:43:13;;;;;;;5.87;5.37;;;12.70;99.90;;;;;;5022845;28;20205;-79
2021/10/03 03:45:39;;;;;;;6.23;5.63;;;12.70;99.90;;;;;;5022872;28;20175;-79
2021/10/03 03:48:05;;;;;;;6.00;5.40;;;12.70;99.90;;;;;;5022849;28;20174;-79
2021/10/03 03:50:32;;;;;;;6.30;5.67;;;12.70;99.90;;;;;;5041108;28;20205;-79
2021/10/03 03:52:58;;;;;;;5.33;4.93;;;12.70;99.90;;;;;;5022815;28;20181;-79
2021/10/03 03:55:24;;;;;;;5.93;5.30;;;12.60;99.90;;;;;;5039924;28;20181;-79
2021/10/03 03:57:53;;;;;;;7.07;5.50;;;12.70;99.90;;;;;;5041105;28;20178;-78
2021/10/03 04:00:20;;;;;;;6.30;5.63;;;12.60;99.90;;;;;;5039080;28;20620;-80
2021/10/03 04:02:45;;;;;;;6.60;6.00;;;12.70;99.90;;;;;;5031096;28;20210;-80
2021/10/03 04:05:11;;;;;;;6.00;5.50;;;12.70;99.90;;;;;;5022764;28;20587;-79
2021/10/03 04:07:37;;;;;;;7.07;5.00;;;12.70;99.90;;;;;;5039210;28;20229;-79
2021/10/03 04:10:04;;;;;;;5.93;5.43;;;12.60;99.90;;;;;;5020825;28;20241;-79
2021/10/03 04:12:30;;;;;;;5.27;4.87;;;12.60;99.90;;;;;;5040242;28;20209;-79
2021/10/03 04:14:56;;;;;;;6.73;6.07;;;12.60;99.90;;;;;;5033640;28;20181;-80
2021/10/03 04:17:21;;;;;;;6.00;5.50;;;12.60;99.90;;;;;;5038775;28;20232;-79
2021/10/03 04:19:47;;;;;;;5.50;5.00;;;12.50;99.90;;;;;;5039845;28;20189;-79
2021/10/03 04:22:13;;;;;;;5.87;5.37;;;12.60;99.90;;;;;;5039555;28;20202;-79
2021/10/03 04:24:38;;;;;;;7.77;5.60;;;12.60;99.90;;;;;;5040067;28;20591;-79
2021/10/03 04:27:04;;;;;;;6.27;5.77;;;12.60;99.90;;;;;;5022308;28;20174;-79
2021/10/03 04:29:30;;;;;;;5.67;5.17;;;12.60;99.90;;;;;;5039851;28;20186;-79
2021/10/03 04:31:56;;;;;;;5.53;5.03;;;12.60;99.90;;;;;;5016354;28;20225;-80
2021/10/03 04:34:21;;;;;;;6.60;6.00;;;12.50;99.90;;;;;;5010638;28;20178;-79
2021/10/03 04:36:47;;;;;;;5.70;5.20;;;12.50;99.90;;;;;;5020632;28;20179;-79
2021/10/03 04:39:13;;;;;;;5.53;5.03;;;12.50;99.90;;;;;;5038625;28;20181;-80
2021/10/03 04:41:38;;;;;;;5.40;4.90;;;12.50;99.90;;;;;;5037670;28;20670;-79
2021/10/03 04:44:04;;;;;;;5.40;4.90;;;12.50;99.90;;;;;;5038626;28;20260;-79
2021/10/03 04:46:30;;;;;;;5.60;5.10;;;12.50;99.90;;;;;;5020340;28;20578;-78
2021/10/03 04:48:56;;;;;;;5.33;4.83;;;12.50;99.90;;;;;;5041008;28;20170;-79
2021/10/03 04:51:22;;;;;;;5.83;5.23;;;12.50;99.90;;;;;;5023567;28;20204;-79
2021/10/03 04:53:48;;;;;;;5.53;5.03;;;12.50;99.90;;;;;;5023041;28;20197;-79
2021/10/03 04:56:14;;;;;;;5.63;4.93;;;12.50;99.90;;;;;;5020780;28;20182;-77
2021/10/03 04:58:40;;;;;;;5.27;4.83;;;12.50;99.90;;;;;;5018934;28;20672;-78
2021/10/03 05:01:06;;;;;;;6.63;5.17;;;12.40;99.90;;;;;;5018569;28;20202;-80
2021/10/03 05:03:35;;;;;;;6.23;5.00;;;12.40;99.90;;;;;;5019248;28;20634;-79
2021/10/03 05:06:02;;;;;;;5.23;4.73;;;12.40;99.90;;;;;;5019120;28;20224;-81
2021/10/03 05:08:27;;;;;;;4.97;4.57;;;12.40;99.90;;;;;;5034570;28;20201;-79
2021/10/03 05:10:53;;;;;;;5.10;4.67;;;12.40;99.90;;;;;;5036332;28;20194;-81
2021/10/03 05:13:19;;;;;;;5.33;4.83;;;12.40;99.90;;;;;;5040504;28;20204;-78
2021/10/03 05:15:47;;;;;;;4.67;4.27;;;12.40;99.90;;;;;;5032599;28;20174;-78
2021/10/03 05:18:13;;;;;;;5.70;5.20;;;12.40;99.90;;;;;;5018962;28;20181;-80
2021/10/03 05:20:39;;;;;;;5.40;4.90;;;12.40;99.90;;;;;;5040114;28;20191;-81
2021/10/03 05:23:05;;;;;;;5.97;5.07;;;12.40;99.90;;;;;;5025253;28;20215;-80
2021/10/03 05:25:32;;;;;;;5.90;5.33;;;12.40;99.90;;;;;;5018921;28;20178;-80
2021/10/03 05:27:58;;;;;;;5.37;4.87;;;12.30;99.90;;;;;;5040798;28;20242;-80
2021/10/03 05:30:24;;;;;;;5.60;4.57;;;12.30;99.90;;;;;;5042107;28;20199;-80
2021/10/03 05:32:50;;;;;;;5.33;4.83;;;12.30;99.90;;;;;;5052379;23;20384;-78
2021/10/03 05:35:15;;;;;;;5.10;4.60;;;12.30;99.90;;;;;;5019567;28;20174;-78
2021/10/03 05:37:41;;;;;;;7.00;4.60;;;12.30;99.90;;;;;;5018899;28;20170;-78
2021/10/03 05:40:07;;;;;;;5.30;4.80;;;12.20;99.90;;;;;;5016776;28;20239;-79
2021/10/03 05:42:33;;;;;;;5.50;5.00;;;12.20;99.90;;;;;;5016779;28;20232;-79
2021/10/03 05:44:59;;;;;;;5.20;4.70;;;12.10;99.90;;;;;;5016878;28;20180;-79
2021/10/03 05:47:24;;;;;;;8.50;5.40;;;12.10;99.90;;;;;;5016947;28;20175;-78
2021/10/03 05:49:50;;;;;;;6.53;5.03;;;12.20;99.90;;;;;;5016322;28;20175;-79
2021/10/03 05:52:16;;;;;;;4.77;4.37;;;12.20;99.90;;;;;;4999500;28;20186;-78
2021/10/03 05:54:41;;;;;;;5.30;4.80;;;12.20;99.90;;;;;;4998776;28;20248;-78
2021/10/03 05:57:07;;;;;;;5.33;4.63;;;12.20;99.90;;;;;;4999726;28;20288;-78
2021/10/03 05:59:32;;;;;;;5.57;4.57;;;12.30;99.90;;;;;;5016074;28;20174;-78
2021/10/03 06:01:58;;;;;;;5.63;4.63;;;12.30;99.90;;;;;;5017582;28;20199;-79
2021/10/03 06:04:24;;;;;;;5.40;4.90;;;12.30;99.90;;;;;;5020766;28;20214;-78
2021/10/03 06:06:49;;;;;;;5.83;5.33;;;12.30;99.90;;;;;;5020717;28;20185;-79
2021/10/03 06:09:15;;;;;;;5.63;5.13;;;12.30;99.90;;;;;;5020886;28;20706;-78
2021/10/03 06:11:40;;;;;;;5.50;5.00;;;12.40;99.90;;;;;;5018757;28;20289;-78
2021/10/03 06:14:06;;;;;;;5.50;5.00;;;12.40;99.90;;;;;;5016310;28;20198;-78
2021/10/03 06:16:32;;;;;;;4.73;4.33;;;12.40;99.90;;;;;;5018604;28;20184;-78
2021/10/03 06:18:58;;;;;;;4.33;3.93;;;12.40;99.90;;;;;;5019288;28;20546;-78
2021/10/03 06:21:25;;;;;;;6.13;4.73;;;12.50;99.90;;;;;;5017018;28;20171;-79
2021/10/03 06:23:51;;;;;;;5.50;4.90;;;12.50;99.90;;;;;;5000756;28;20234;-78
2021/10/03 06:26:18;;;;;;;4.80;4.30;;;12.60;99.90;;;;;;5019077;28;20700;-78
2021/10/03 06:28:44;;;;;;;5.53;4.90;;;12.60;99.90;;;;;;5016174;28;20554;-77
2021/10/03 06:31:10;;;;;;;5.33;4.90;;;12.60;99.90;;;;;;5018184;28;20182;-77
2021/10/03 06:33:37;;;;;;;5.57;4.23;;;12.70;99.90;;;;;;5016919;28;20586;-78
2021/10/03 06:36:04;;;;;;;5.13;4.63;;;12.80;99.90;;;;;;5018257;28;20179;-78
2021/10/03 06:38:30;;;;;;;4.57;4.17;;;12.80;99.90;;;;;;5018367;28;20658;-78
2021/10/03 06:40:56;;;;;;;5.90;4.67;;;12.80;99.90;;;;;;5017720;28;20238;-79
2021/10/03 06:43:21;;;;;;;5.07;4.57;;;12.80;99.90;;;;;;5000467;28;20320;-79
2021/10/03 06:45:50;;;;;;;5.30;4.77;;;12.90;99.90;;;;;;5018318;28;20241;-77
2021/10/03 06:48:16;;;;;;;4.60;4.23;;;12.90;99.90;;;;;;5016197;28;20178;-79
2021/10/03 06:50:42;;;;;;;5.20;4.60;;;12.90;99.90;;;;;;5016714;28;20175;-78
2021/10/03 06:53:07;;;;;;;5.00;4.50;;;13.00;99.90;;;;;;5018383;28;20201;-78
2021/10/03 06:55:33;;;;;;;4.77;4.37;;;13.00;99.90;;;;;;5017901;28;20650;-78
2021/10/03 06:58:03;;;;;;;5.67;5.07;;;13.10;99.90;;;;;;5018505;28;20653;-78
2021/10/03 07:00:29;;;;;;;7.40;5.20;;;13.10;99.90;;;;;;5014413;28;20225;-78
2021/10/03 07:02:55;;;;;;;7.10;4.73;;;13.20;99.90;;;;;;5011844;28;20214;-79
2021/10/03 07:05:20;;;;;;;5.10;4.70;;;13.20;99.90;;;;;;5010910;28;20245;-78
2021/10/03 07:07:46;;;;;;;6.23;4.40;;;13.20;99.90;;;;;;5020503;28;20171;-78
2021/10/03 07:10:12;;;;;;;7.00;5.00;;;13.20;99.90;;;;;;5001730;28;20173;-78
2021/10/03 07:12:37;;;;;;;4.60;4.20;;;13.20;99.90;;;;;;5019919;28;20207;-79
2021/10/03 07:15:03;;;;;;;4.80;4.40;;;13.20;99.90;;;;;;5019518;28;20258;-79
2021/10/03 07:17:29;;;;;;;4.80;4.20;;;13.30;99.90;;;;;;5019711;28;20171;-79
2021/10/03 07:19:55;;;;;;;5.57;4.53;;;13.30;99.90;;;;;;5018829;28;20710;-79
2021/10/03 07:22:20;;;;;;;5.07;4.60;;;13.30;99.90;;;;;;5019645;28;20199;-78
2021/10/03 07:24:46;;;;;;;4.93;4.53;;;13.40;99.90;;;;;;5017829;28;20538;-78
2021/10/03 07:27:12;;;;;;;4.87;4.47;;;13.40;99.90;;;;;;5016484;28;20202;-77
2021/10/03 07:29:37;;;;;;;5.00;4.50;;;13.40;99.90;;;;;;5017193;28;20198;-78
2021/10/03 07:32:07;;;;;;;9.60;7.30;;;13.50;99.90;;;;;;5017776;28;20542;-78
2021/10/03 07:34:36;;;;;;;11.80;9.50;;;13.50;99.90;;;;;;5017311;28;20583;-78
2021/10/03 07:37:03;;;;;;;8.03;7.23;;;13.50;99.90;;;;;;5017591;28;20194;-78
2021/10/03 07:39:30;;;;;;;5.90;5.40;;;13.60;99.90;;;;;;4999720;28;20680;-77
2021/10/03 07:41:56;;;;;;;6.30;5.80;;;13.60;99.90;;;;;;5001956;28;20183;-78
2021/10/03 07:44:22;;;;;;;6.13;5.53;;;13.70;99.90;;;;;;5018916;28;20290;-78
2021/10/03 07:46:48;;;;;;;5.70;5.07;;;13.70;99.90;;;;;;5016438;28;20175;-78
2021/10/03 07:49:14;;;;;;;5.33;4.93;;;13.70;99.90;;;;;;5015384;28;20175;-78
2021/10/03 07:51:40;;;;;;;5.30;4.70;;;13.80;99.90;;;;;;5017669;28;20585;-78
2021/10/03 07:54:05;;;;;;;5.30;4.80;;;13.80;99.90;;;;;;5017759;28;20218;-78
2021/10/03 07:56:31;;;;;;;5.30;4.63;;;13.80;99.90;;;;;;5017336;28;20206;-78
2021/10/03 07:58:57;;;;;;;5.17;4.77;;;13.90;99.90;;;;;;5011005;28;20192;-78
2021/10/03 08:01:22;;;;;;;4.77;4.17;;;13.90;99.90;;;;;;5009844;28;20650;-79
2021/10/03 08:03:48;;;;;;;5.97;5.37;;;13.90;99.90;;;;;;5016804;28;20674;-79
2021/10/03 08:06:15;;;;;;;5.40;4.70;;;13.90;99.90;;;;;;5014426;28;20198;-78
2021/10/03 08:08:40;;;;;;;4.83;4.43;;;14.00;99.90;;;;;;5016703;28;20175;-78
2021/10/03 08:11:06;;;;;;;5.20;4.70;;;14.00;99.90;;;;;;5021226;28;20658;-78
2021/10/03 08:13:32;;;;;;;4.77;4.37;;;14.00;99.90;;;;;;5021447;28;20210;-79
2021/10/03 08:15:58;;;;;;;4.97;4.50;;;14.00;99.90;;;;;;5022319;28;20187;-79
2021/10/03 08:18:23;;;;;;;5.00;4.60;;;14.10;99.90;;;;;;5021985;28;20167;-79
2021/10/03 08:20:51;;;;;;;5.93;5.33;;;14.10;99.90;;;;;;5020649;28;20179;-78
2021/10/03 08:23:17;;;;;;;5.50;5.00;;;14.10;99.90;;;;;;5018397;28;20571;-78
2021/10/03 08:25:43;;;;;;;5.50;4.97;;;14.10;99.90;;;;;;5011754;28;20252;-78
2021/10/03 08:28:08;;;;;;;6.90;6.20;;;14.10;99.90;;;;;;5017554;28;20663;-79
2021/10/03 08:30:34;;;;;;;7.80;7.10;;;14.20;99.90;;;;;;5020482;28;20183;-78
2021/10/03 08:33:00;;;;;;;8.73;7.80;;;14.20;99.90;;;;;;5018277;28;20705;-78
2021/10/03 08:35:26;;;;;;;7.17;6.03;;;14.20;99.90;;;;;;5015234;28;20183;-80
2021/10/03 08:37:52;;;;;;;7.00;5.23;;;14.20;99.90;;;;;;5019636;28;20674;-79
2021/10/03 08:40:17;;;;;;;7.27;5.70;;;14.30;99.90;;;;;;5000486;28;20175;-78
2021/10/03 08:42:43;;;;;;;7.83;5.50;;;14.30;99.90;;;;;;5000694;28;20229;-79
2021/10/03 08:45:09;;;;;;;5.53;4.97;;;14.40;99.90;;;;;;5017978;28;20210;-77
2021/10/03 08:47:40;;;;;;;5.97;5.47;;;14.40;99.90;;;;;;5018438;28;20178;-78
2021/10/03 08:50:10;;;;;;;8.43;7.43;;;14.50;99.90;;;;;;5015873;28;20171;-78
2021/10/03 08:52:37;;;;;;;21.60;12.90;;;14.60;99.90;;;;;;5015608;28;20547;-78
2021/10/03 08:55:04;;;;;;;22.93;14.67;;;14.60;99.90;;;;;;5016994;28;20242;-78
2021/10/03 08:57:29;;;;;;;8.87;8.00;;;14.70;99.90;;;;;;5017263;28;20190;-78
2021/10/03 09:00:19;;;;;;;6.80;6.20;;;14.70;99.90;;;;;;5013855;28;20167;-78
2021/10/03 09:02:53;;;;;;;9.07;6.17;;;14.80;99.90;;;;;;4985353;28;20211;-78
2021/10/03 09:05:20;;;;;;;5.30;4.90;;;14.80;99.90;;;;;;5015853;28;20764;-78
2021/10/03 09:08:08;;;;;;;7.03;5.80;;;14.90;99.90;;;;;;5003409;28;20175;-78
2021/10/03 09:10:55;;;;;;;6.23;5.60;;;15.00;99.90;;;;;;5010153;28;20187;-78
2021/10/03 09:13:31;;;;;;;5.80;5.20;;;15.10;99.90;;;;;;5015196;28;20207;-78
2021/10/03 09:16:06;;;;;;;5.73;4.87;;;15.10;99.90;;;;;;4997765;28;20183;-78
2021/10/03 09:18:38;;;;;;;7.43;5.47;;;15.20;99.90;;;;;;5015802;28;20182;-78
2021/10/03 09:21:04;;;;;;;5.53;4.73;;;15.30;99.90;;;;;;5015584;28;20800;-78
2021/10/03 09:23:30;;;;;;;6.70;5.53;;;15.40;99.90;;;;;;5017429;28;20213;-78
2021/10/03 09:25:56;;;;;;;5.27;4.77;;;15.50;99.90;;;;;;5012922;28;20173;-78
2021/10/03 09:28:31;;;;;;;5.47;4.97;;;15.50;99.90;;;;;;5011222;28;20179;-79
2021/10/03 09:31:07;;;;;;;5.90;5.40;;;15.50;99.90;;;;;;4996940;28;20266;-79
2021/10/03 09:33:55;;;;;;;7.37;5.70;;;15.60;99.90;;;;;;5020270;28;20310;-80
2021/10/03 09:36:33;;;;;;;7.80;4.90;;;15.60;99.90;;;;;;5014509;28;20195;-78
2021/10/03 09:39:08;;;;;;;5.03;4.37;;;15.60;99.90;;;;;;4998912;28;20183;-78
2021/10/03 09:41:39;;;;;;;6.20;5.13;;;15.70;99.90;;;;;;5015262;28;20184;-79
2021/10/03 09:44:09;;;;;;;5.80;5.30;;;15.80;99.90;;;;;;4996927;28;20222;-78
2021/10/03 09:46:47;;;;;;;6.07;5.47;;;15.80;99.90;;;;;;5015991;28;20230;-78
2021/10/03 09:49:15;;;;;;;7.87;5.37;;;15.90;99.90;;;;;;5016462;28;20600;-78
2021/10/03 09:51:45;;;;;;;5.50;5.00;;;16.00;99.90;;;;;;4998658;28;20186;-78
2021/10/03 09:54:11;;;;;;;5.40;4.90;;;16.10;99.90;;;;;;5018581;28;20672;-79
2021/10/03 09:56:37;;;;;;;5.30;4.80;;;16.20;99.90;;;;;;5018203;28;20185;-79
2021/10/03 09:59:05;;;;;;;4.90;4.50;;;16.30;99.90;;;;;;5018136;28;20594;-79
2021/10/03 10:01:38;;;;;;;5.43;4.50;;;16.30;99.90;;;;;;5018362;28;20185;-79
2021/10/03 10:04:07;;;;;;;4.37;3.97;;;;;;;;;;5017896;28;20243;-79
2021/10/03 10:06:33;;;;;;;4.03;3.73;;;16.50;99.90;;;;;;5018443;28;20186;-78
2021/10/03 10:09:08;;;;;;;4.80;4.40;;;16.50;99.90;;;;;;5000289;28;20212;-78
2021/10/03 10:11:34;;;;;;;4.60;3.90;;;16.50;99.90;;;;;;5003143;28;20190;-79
2021/10/03 10:14:02;;;;;;;4.53;3.83;;;16.60;99.90;;;;;;5021976;28;20653;-82
2021/10/03 10:16:34;;;;;;;4.63;4.20;;;16.60;99.90;;;;;;5022290;28;20250;-80
2021/10/03 10:19:32;;;;;;;4.43;4.00;;;16.70;99.90;;;;;;5004171;28;20189;-79
2021/10/03 10:22:16;;;;;;;5.37;3.93;;;16.80;99.90;;;;;;5021348;28;20210;-79
2021/10/03 10:24:47;;;;;;;4.23;3.83;;;16.90;99.90;;;;;;5021609;28;20615;-80
2021/10/03 10:27:18;;;;;;;4.50;4.10;;;17.00;99.90;;;;;;5022949;28;20208;-80
2021/10/03 10:29:49;;;;;;;4.80;4.40;;;17.00;99.90;;;;;;5014702;28;20222;-80
2021/10/03 10:32:15;;;;;;;4.63;4.23;;;17.00;99.90;;;;;;5020115;28;20187;-79
2021/10/03 10:35:11;;;;;;;4.93;4.53;;;17.00;99.90;;;;;;5019631;28;20223;-79
2021/10/03 10:37:48;;;;;;;4.87;4.47;;;17.10;99.90;;;;;;5020828;28;20564;-79
2021/10/03 10:40:23;;;;;;;5.33;4.93;;;17.20;99.90;;;;;;5021203;28;20198;-80
2021/10/03 10:43:04;;;;;;;5.87;4.93;;;17.20;99.90;;;;;;5020558;28;20232;-79
2021/10/03 10:45:30;;;;;;;5.37;4.90;;;17.20;99.90;;;;;;5019965;28;20173;-80
2021/10/03 10:48:11;;;;;;;5.50;5.00;;;17.20;99.90;;;;;;5022058;28;20228;-79
2021/10/03 10:50:37;;;;;;;5.23;4.73;;;17.30;99.90;;;;;;5024816;28;20170;-80
2021/10/03 10:53:22;;;;;;;5.73;5.23;;;17.30;99.90;;;;;;5024202;28;20229;-80
2021/10/03 10:56:18;;;;;;;7.73;5.20;;;17.30;99.90;;;;;;5024297;28;20190;-80
2021/10/03 10:58:53;;;;;;;5.63;5.10;;;17.40;99.90;;;;;;5024362;28;20187;-81
2021/10/03 11:01:31;;;;;;;5.67;5.23;;;17.30;99.90;;;;;;5021972;28;20193;-80
2021/10/03 11:03:59;;;;;;;5.70;5.13;;;17.40;99.90;;;;;;5023512;28;20291;-80
2021/10/03 11:06:47;;;;;;;5.43;4.93;;;17.40;99.90;;;;;;5008445;28;20174;-80
2021/10/03 11:09:16;;;;;;;5.27;4.87;;;17.40;99.90;;;;;;5011398;28;20954;-79
2021/10/03 11:11:53;;;;;;;6.80;4.83;;;17.50;99.90;;;;;;5020739;28;20186;-80
2021/10/03 11:14:21;;;;;;;5.00;4.60;;;17.50;99.90;;;;;;5006639;28;20273;-79
2021/10/03 11:16:50;;;;;;;5.97;5.47;;;17.50;99.90;;;;;;5023169;28;20229;-79
2021/10/03 11:19:21;;;;;;;6.47;5.03;;;17.50;99.90;;;;;;5024074;28;20342;-80
2021/10/03 11:22:02;;;;;;;5.97;5.47;;;17.50;99.90;;;;;;5007601;28;20178;-80
2021/10/03 11:24:34;;;;;;;7.47;5.83;;;17.60;99.90;;;;;;5025586;28;20249;-80
2021/10/03 11:27:02;;;;;;;11.40;4.70;;;17.60;99.90;;;;;;5008284;28;20183;-80
2021/10/03 11:29:32;;;;;;;6.30;5.00;;;17.70;99.90;;;;;;5026161;28;20238;-80
2021/10/03 11:32:09;;;;;;;6.13;5.20;;;17.70;99.90;;;;;;5026575;28;20211;-80
2021/10/03 11:34:35;;;;;;;6.13;5.53;;;;;;;;;;5026429;28;20582;-80
2021/10/03 11:37:05;;;;;;;6.07;5.47;;;17.70;99.90;;;;;;5014470;28;20210;-80
2021/10/03 11:39:39;;;;;;;5.67;5.27;;;17.80;99.90;;;;;;5019917;28;21538;-80
2021/10/03 11:42:06;;;;;;;5.60;5.10;;;17.90;99.90;;;;;;5015549;28;20247;-81
2021/10/03 11:44:33;;;;;;;5.73;5.23;;;17.90;99.90;;;;;;5021049;28;20195;-80
2021/10/03 11:47:05;;;;;;;5.57;5.07;;;18.00;99.90;;;;;;5019942;28;20179;-80
2021/10/03 11:49:33;;;;;;;5.57;5.00;;;17.90;99.90;;;;;;5022367;28;20553;-80
2021/10/03 11:51:59;;;;;;;5.87;5.37;;;18.00;99.90;;;;;;5021295;28;20234;-80
2021/10/03 11:54:33;;;;;;;5.80;5.30;;;18.00;99.90;;;;;;5022864;28;20274;-80
2021/10/03 11:57:29;;;;;;;5.33;4.93;;;18.00;99.90;;;;;;5014697;28;20261;-79
2021/10/03 12:00:08;;;;;;;5.97;4.60;;;18.00;99.90;;;;;;5003432;28;20219;-79
2021/10/03 12:02:37;;;;;;;5.10;4.60;;;18.10;99.90;;;;;;5018807;28;20203;-80
2021/10/03 12:05:04;;;;;;;5.70;5.10;;;18.30;99.90;;;;;;5022600;28;20211;-80
2021/10/03 12:07:30;;;;;;;6.40;4.90;;;18.30;99.90;;;;;;5020886;28;20175;-79
2021/10/03 12:10:04;;;;;;;6.07;4.50;;;18.40;99.90;;;;;;5021401;28;20215;-80
2021/10/03 12:12:50;;;;;;;5.00;4.40;;;18.40;99.90;;;;;;5015955;28;20190;-79
2021/10/03 12:15:42;;;;;;;4.57;4.17;;;18.40;99.90;;;;;;5027324;28;20167;-79
2021/10/03 12:18:32;;;;;;;5.30;4.80;;;18.50;99.90;;;;;;5021406;28;20183;-80
2021/10/03 12:21:24;;;;;;;5.10;4.60;;;18.70;99.90;;;;;;4993712;28;20202;-80
2021/10/03 12:23:52;;;;;;;6.73;4.67;;;18.70;99.90;;;;;;5024519;28;20628;-80
2021/10/03 12:26:25;;;;;;;4.43;3.97;;;18.80;99.90;;;;;;5019741;28;20188;-80
2021/10/03 12:29:07;;;;;;;6.00;4.30;;;19.00;99.90;;;;;;5019430;28;20639;-80
2021/10/03 12:31:56;;;;;;;4.77;4.27;;;19.10;99.90;;;;;;5016199;28;20636;-79
2021/10/03 12:34:22;;;;;;;4.77;4.20;;;19.10;99.90;;;;;;5022727;28;20211;-79
2021/10/03 12:36:53;;;;;;;4.30;3.90;;;19.10;99.90;;;;;;5019090;28;20196;-80
2021/10/03 12:39:21;;;;;;;6.30;4.23;;;19.10;99.90;;;;;;5021409;28;20183;-80
2021/10/03 12:41:48;;;;;;;4.40;4.00;;;19.10;99.90;;;;;;5021645;28;20184;-80
2021/10/03 12:44:14;;;;;;;5.43;4.53;;;19.10;99.90;;;;;;5001635;28;20635;-80
2021/10/03 12:46:40;;;;;;;5.80;4.30;;;19.20;99.90;;;;;;5021747;28;20282;-80
2021/10/03 12:49:06;;;;;;;4.53;4.13;;;19.20;99.90;;;;;;5019500;28;20187;-80
2021/10/03 12:51:32;;;;;;;5.47;3.93;;;19.20;99.90;;;;;;5019824;28;20253;-80
2021/10/03 12:53:58;;;;;;;4.63;4.20;;;19.20;99.90;;;;;;5024235;28;20217;-80